createdAt,value
2022-10-04T00:01:53.313Z,15.95
2022-10-04T00:04:25.167Z,17.13
2022-10-04T00:07:06.909Z,16.33
2022-10-04T00:10:04.693Z,15.85
2022-10-04T00:12:35.641Z,15.65
2022-10-04T00:15:07.449Z,18.27
2022-10-04T00:17:37.475Z,16.10
2022-10-04T00:20:55.773Z,17.15
2022-10-04T00:23:25.469Z,14.07
2022-10-04T00:26:00.727Z,18.95
2022-10-04T00:28:36.684Z,15.70
2022-10-04T00:31:18.522Z,19.10
2022-10-04T00:36:23.936Z,18.30
2022-10-04T00:39:08.918Z,18.70
2022-10-04T00:41:48.027Z,19.45
2022-10-04T00:44:37.322Z,23.23
2022-10-04T00:47:22.306Z,18.17
2022-10-04T00:49:55.929Z,15.95
2022-10-04T00:52:29.124Z,18.33
2022-10-04T00:55:05.201Z,17.40
2022-10-04T00:57:46.831Z,21.55
2022-10-04T01:00:19.167Z,22.00
2022-10-04T01:03:01.781Z,15.63
2022-10-04T01:05:39.253Z,15.23
2022-10-04T01:08:22.419Z,20.60
2022-10-04T01:11:02.532Z,17.08
2022-10-04T01:13:37.033Z,18.55
2022-10-04T01:16:28.275Z,20.25
2022-10-04T01:18:56.103Z,19.52
2022-10-04T01:21:29.361Z,17.63
2022-10-04T01:23:58.988Z,14.88
2022-10-04T01:26:34.531Z,15.65
2022-10-04T01:29:09.964Z,15.40
2022-10-04T01:31:40.469Z,17.25
2022-10-04T01:34:08.367Z,19.30
2022-10-04T01:36:36.889Z,14.35
2022-10-04T01:39:04.299Z,15.73
2022-10-04T01:41:44.877Z,18.83
2022-10-04T01:44:20.746Z,18.70
2022-10-04T01:46:49.562Z,16.23
2022-10-04T01:49:19.807Z,17.17
2022-10-04T01:52:17.644Z,17.58
2022-10-04T01:54:48.912Z,13.52
2022-10-04T01:57:19.163Z,16.25
2022-10-04T02:00:21.554Z,19.65
2022-10-04T02:03:00.886Z,13.50
2022-10-04T02:05:30.540Z,13.90
2022-10-04T02:08:03.968Z,17.88
2022-10-04T02:10:33.571Z,15.27
2022-10-04T02:13:00.860Z,17.08
2022-10-04T02:15:28.064Z,16.92
2022-10-04T02:17:57.009Z,13.32
2022-10-04T02:20:26.773Z,13.90
2022-10-04T02:22:59.307Z,16.50
2022-10-04T02:25:26.749Z,16.75
2022-10-04T02:27:55.873Z,14.82
2022-10-04T02:30:23.995Z,16.17
2022-10-04T02:33:00.562Z,14.48
2022-10-04T02:35:35.681Z,17.30
2022-10-04T02:38:12.646Z,15.82
2022-10-04T02:40:59.872Z,16.17
2022-10-04T02:43:36.488Z,13.27
2022-10-04T02:46:18.247Z,14.02
2022-10-04T02:51:25.831Z,14.80
2022-10-04T02:54:27.855Z,15.98
2022-10-04T02:56:56.464Z,15.15
2022-10-04T02:59:23.685Z,17.55
2022-10-04T03:02:01.715Z,13.95
2022-10-04T03:04:32.143Z,17.48
2022-10-04T03:07:02.556Z,12.88
2022-10-04T03:09:30.282Z,13.30
2022-10-04T03:11:57.450Z,13.98
2022-10-04T03:14:27.565Z,15.77
2022-10-04T03:16:57.385Z,13.88
2022-10-04T03:19:26.814Z,13.90
2022-10-04T03:21:57.877Z,13.57
2022-10-04T03:24:34.140Z,16.50
2022-10-04T03:27:05.650Z,17.67
2022-10-04T03:29:34.043Z,17.83
2022-10-04T03:32:03.771Z,16.58
2022-10-04T03:34:43.927Z,13.07
2022-10-04T03:37:16.425Z,15.07
2022-10-04T03:39:49.153Z,14.95
2022-10-04T03:42:20.309Z,19.65
2022-10-04T03:44:48.569Z,16.65
2022-10-04T03:47:22.004Z,13.48
2022-10-04T03:49:51.090Z,14.18
2022-10-04T03:52:25.509Z,11.73
2022-10-04T03:54:55.067Z,15.88
2022-10-04T03:57:22.692Z,14.10
2022-10-04T03:59:50.543Z,12.65
2022-10-04T04:02:35.925Z,14.38
2022-10-04T04:05:15.101Z,16.87
2022-10-04T04:07:46.443Z,15.35
2022-10-04T04:10:27.425Z,19.52
2022-10-04T04:12:59.036Z,16.13
2022-10-04T04:15:31.291Z,15.65
2022-10-04T04:18:03.548Z,16.40
2022-10-04T04:20:42.456Z,20.48
2022-10-04T04:23:15.148Z,17.02
2022-10-04T04:25:45.871Z,18.70
2022-10-04T04:28:39.135Z,16.42
2022-10-04T04:31:20.765Z,14.45
2022-10-04T04:34:00.262Z,18.45
2022-10-04T04:36:38.534Z,18.17
2022-10-04T04:39:37.480Z,15.77
2022-10-04T04:42:21.145Z,18.63
2022-10-04T04:44:55.593Z,15.35
2022-10-04T04:47:44.052Z,15.10
2022-10-04T04:50:24.373Z,19.88
2022-10-04T04:53:05.019Z,18.55
2022-10-04T04:56:02.690Z,15.43
2022-10-04T04:58:36.983Z,16.75
2022-10-04T05:01:07.965Z,13.43
2022-10-04T05:03:35.117Z,17.30
2022-10-04T05:06:04.670Z,12.30
2022-10-04T05:08:38.753Z,18.25
2022-10-04T05:11:08.396Z,17.58
2022-10-04T05:13:50.249Z,15.13
2022-10-04T05:18:59.860Z,12.85
2022-10-04T05:21:29.665Z,15.27
2022-10-04T05:23:58.467Z,15.15
2022-10-04T05:26:29.223Z,15.88
2022-10-04T05:29:01.620Z,15.40
2022-10-04T05:31:45.590Z,19.58
2022-10-04T05:34:23.716Z,16.95
2022-10-04T05:37:07.385Z,14.23
2022-10-04T05:40:15.839Z,24.40
2022-10-04T05:42:45.271Z,25.08
2022-10-04T05:45:17.825Z,17.80
2022-10-04T05:47:47.793Z,23.85
2022-10-04T05:50:40.488Z,20.23
2022-10-04T05:53:25.693Z,18.38
2022-10-04T05:56:01.587Z,24.95
2022-10-04T05:58:37.642Z,24.70
2022-10-04T06:01:24.104Z,23.85
2022-10-04T06:04:21.769Z,22.23
2022-10-04T06:07:00.873Z,28.92
2022-10-04T06:09:48.124Z,27.95
2022-10-04T06:12:35.733Z,23.27
2022-10-04T06:15:33.039Z,32.83
2022-10-04T06:18:18.465Z,23.60
2022-10-04T06:21:00.949Z,27.13
2022-10-04T06:23:31.816Z,25.27
2022-10-04T06:26:13.860Z,30.00
2022-10-04T06:28:52.408Z,23.48
2022-10-04T06:32:00.488Z,32.50
2022-10-04T06:35:04.809Z,30.85
2022-10-04T06:38:02.573Z,23.92
2022-10-04T06:40:29.123Z,29.10
2022-10-04T06:43:17.014Z,24.42
2022-10-04T06:46:26.711Z,25.83
2022-10-04T06:49:10.487Z,23.55
2022-10-04T06:52:06.325Z,33.15
2022-10-04T06:55:00.278Z,27.95
2022-10-04T06:57:50.041Z,33.60
2022-10-04T07:00:21.794Z,24.50
2022-10-04T07:05:57.643Z,22.30
2022-10-04T07:08:40.476Z,25.48
2022-10-04T07:11:28.158Z,26.77
2022-10-04T07:14:11.185Z,17.90
2022-10-04T07:16:50.903Z,22.17
2022-10-04T07:19:20.547Z,25.95
2022-10-04T07:21:53.058Z,18.83
2022-10-04T07:24:27.005Z,28.70
2022-10-04T07:26:55.737Z,20.02
2022-10-04T07:29:28.283Z,20.25
2022-10-04T07:32:07.029Z,17.48
2022-10-04T07:34:40.101Z,25.90
2022-10-04T07:37:13.098Z,23.92
2022-10-04T07:40:01.464Z,23.38
2022-10-04T07:42:32.811Z,18.48
2022-10-04T07:45:34.365Z,23.48
2022-10-04T07:48:23.864Z,18.48
2022-10-04T07:51:25.248Z,16.27
2022-10-04T07:54:10.667Z,18.63
2022-10-04T07:56:55.077Z,16.50
2022-10-04T08:00:12.175Z,12.82
2022-10-04T08:02:55.003Z,12.38
2022-10-04T09:54:56.721Z,8.90
2022-10-04T09:57:39.969Z,11.43
2022-10-04T10:00:09.226Z,12.77
2022-10-04T10:03:02.489Z,11.30
2022-10-04T10:06:07.180Z,9.32
2022-10-04T10:08:57.780Z,12.63
2022-10-04T10:11:53.397Z,9.02
2022-10-04T10:14:26.937Z,8.13
2022-10-04T10:17:00.903Z,11.57
2022-10-04T10:19:47.801Z,7.57
2022-10-04T10:22:33.696Z,10.35
2022-10-04T10:25:27.258Z,9.23
2022-10-04T10:28:30.416Z,15.07
2022-10-04T10:31:05.785Z,15.43
2022-10-04T10:33:47.332Z,13.88
2022-10-04T10:36:42.330Z,12.82
2022-10-04T10:39:21.413Z,7.28
2022-10-04T10:42:12.940Z,10.80
2022-10-04T10:44:51.787Z,9.63
2022-10-04T10:47:30.943Z,10.32
2022-10-04T10:50:27.364Z,7.45
2022-10-04T10:53:29.125Z,15.88
2022-10-04T10:56:29.379Z,9.82
2022-10-04T10:59:21.128Z,12.07
2022-10-04T11:02:12.550Z,11.23
2022-10-04T11:04:57.734Z,8.02
2022-10-04T11:07:43.476Z,10.77
2022-10-04T11:10:35.240Z,7.80
2022-10-04T11:13:26.467Z,7.07
2022-10-04T11:16:01.167Z,10.88
2022-10-04T11:18:56.857Z,12.20
2022-10-04T11:22:07.437Z,7.90
2022-10-04T11:24:44.938Z,8.85
2022-10-04T11:27:14.526Z,9.38
2022-10-04T11:30:03.903Z,8.43
2022-10-04T11:33:04.553Z,10.80
2022-10-04T11:35:36.748Z,7.10
2022-10-04T11:38:19.808Z,7.28
2022-10-04T11:41:12.897Z,7.15
2022-10-04T11:44:16.862Z,7.78
2022-10-04T11:47:03.223Z,7.53
2022-10-04T11:49:56.461Z,9.50
2022-10-04T11:52:49.954Z,6.57
2022-10-04T11:56:04.023Z,7.82
2022-10-04T11:59:03.846Z,8.20
2022-10-04T12:01:49.650Z,4.80
2022-10-04T12:04:44.138Z,6.32
2022-10-04T12:07:49.910Z,7.00
2022-10-04T12:10:25.414Z,7.70
2022-10-04T12:13:25.859Z,7.50
2022-10-04T12:16:30.309Z,5.95
2022-10-04T12:19:29.135Z,10.07
2022-10-04T12:22:23.893Z,7.15
2022-10-04T12:25:09.175Z,12.75
2022-10-04T12:27:52.369Z,10.80
2022-10-04T12:30:36.238Z,9.95
2022-10-04T12:33:31.655Z,7.13
2022-10-04T12:36:48.241Z,7.18
2022-10-04T12:39:38.081Z,5.75
2022-10-04T12:42:32.512Z,7.57
2022-10-04T12:45:25.154Z,8.30
2022-10-04T12:48:22.953Z,5.60
2022-10-04T12:51:13.406Z,8.02
2022-10-04T12:53:58.876Z,7.38
2022-10-04T12:56:40.523Z,8.35
2022-10-04T12:59:22.325Z,10.27
2022-10-04T13:01:57.226Z,8.55
2022-10-04T13:04:39.123Z,15.48
2022-10-04T13:07:51.220Z,8.45
2022-10-04T13:13:15.946Z,8.02
2022-10-04T13:19:21.962Z,8.68
2022-10-04T13:22:13.642Z,7.90
2022-10-04T13:24:55.399Z,7.15
2022-10-04T13:27:38.303Z,9.73
2022-10-04T13:30:06.836Z,8.98
2022-10-04T13:32:47.435Z,8.45
2022-10-04T13:35:46.381Z,7.00
2022-10-04T13:38:24.012Z,12.43
2022-10-04T13:41:04.408Z,6.63
2022-10-04T13:43:52.508Z,12.27
2022-10-04T13:46:56.728Z,10.43
2022-10-04T13:49:29.478Z,7.10
2022-10-04T13:52:20.550Z,7.50
2022-10-04T13:55:20.162Z,6.37
2022-10-04T13:58:08.645Z,12.38
2022-10-04T14:01:22.113Z,5.28
2022-10-04T14:04:26.491Z,10.07
2022-10-04T14:07:34.401Z,5.68
2022-10-04T14:10:23.833Z,5.82
2022-10-04T14:13:11.018Z,7.10
2022-10-04T14:16:18.376Z,6.78
2022-10-04T14:18:59.794Z,10.75
2022-10-04T14:21:48.446Z,8.07
2022-10-04T14:24:40.483Z,5.25
2022-10-04T14:30:00.776Z,10.50
2022-10-04T14:32:43.037Z,7.60
2022-10-04T14:35:36.680Z,6.75
2022-10-04T14:38:15.757Z,9.45
2022-10-04T14:41:04.588Z,12.65
2022-10-04T14:43:56.364Z,9.40
2022-10-04T14:49:24.567Z,11.10
2022-10-04T14:52:06.560Z,12.02
2022-10-04T14:54:50.628Z,6.32
2022-10-04T14:57:42.361Z,7.90
2022-10-04T15:00:16.768Z,9.40
2022-10-04T15:03:17.283Z,6.50
2022-10-04T15:06:24.462Z,8.70
2022-10-04T15:09:13.092Z,9.63
2022-10-04T15:12:21.525Z,8.50
2022-10-04T15:15:03.379Z,8.20
2022-10-04T15:17:39.265Z,6.28
2022-10-04T15:20:22.158Z,7.68
2022-10-04T15:23:18.310Z,12.05
2022-10-04T15:25:57.100Z,6.25
2022-10-04T15:28:49.599Z,9.68
2022-10-04T15:31:21.850Z,8.75
2022-10-04T15:34:06.725Z,7.10
2022-10-04T15:37:01.787Z,7.53
2022-10-04T15:40:03.445Z,6.50
2022-10-04T15:42:34.780Z,6.80
2022-10-04T15:45:17.124Z,5.82
2022-10-04T15:48:23.625Z,8.10
2022-10-04T15:51:13.741Z,7.95
2022-10-04T15:53:53.802Z,9.00
2022-10-04T15:56:27.100Z,7.95
2022-10-04T15:58:59.436Z,9.23
2022-10-04T16:01:45.776Z,8.27
2022-10-04T16:04:37.444Z,10.38
2022-10-04T16:07:07.058Z,13.05
2022-10-04T16:09:54.404Z,7.30
2022-10-04T16:12:52.742Z,13.38
2022-10-04T16:15:35.633Z,7.60
2022-10-04T16:18:41.777Z,8.07
2022-10-04T16:21:46.197Z,6.70
2022-10-04T16:24:21.406Z,10.85
2022-10-04T16:26:50.965Z,9.48
2022-10-04T16:29:31.458Z,8.35
2022-10-04T16:32:04.928Z,9.23
2022-10-04T16:34:45.440Z,11.25
2022-10-04T16:37:24.048Z,8.45
2022-10-04T16:40:55.950Z,11.50
2022-10-04T16:43:29.823Z,10.85
2022-10-04T16:46:15.183Z,9.70
2022-10-04T16:48:58.885Z,8.02
2022-10-04T16:52:06.609Z,10.52
2022-10-04T16:55:03.253Z,11.13
2022-10-04T16:57:30.300Z,9.48
2022-10-04T17:00:06.072Z,8.95
2022-10-04T17:02:32.730Z,11.48
2022-10-04T17:05:05.149Z,9.05
2022-10-04T17:07:54.854Z,11.07
2022-10-04T17:10:31.108Z,8.35
2022-10-04T17:13:14.599Z,10.25
2022-10-04T17:16:14.624Z,9.00
2022-10-04T17:18:51.967Z,8.10
2022-10-04T17:21:21.410Z,9.32
2022-10-04T17:24:06.531Z,7.50
2022-10-04T17:27:05.725Z,6.88
2022-10-04T17:30:15.294Z,7.05
2022-10-04T17:33:21.754Z,7.10
2022-10-04T17:36:07.375Z,8.93
2022-10-04T17:38:40.992Z,6.35
2022-10-04T17:41:23.235Z,9.13
2022-10-04T17:43:55.978Z,10.15
2022-10-04T17:46:31.147Z,7.78
2022-10-04T17:49:22.809Z,11.35
2022-10-04T17:52:12.480Z,8.30
2022-10-04T17:55:10.598Z,7.28
2022-10-04T17:58:00.219Z,6.60
2022-10-04T18:00:46.480Z,8.88
2022-10-04T18:03:52.374Z,6.43
2022-10-04T18:06:31.532Z,7.45
2022-10-04T18:09:24.901Z,10.07
2022-10-04T18:11:59.573Z,8.70
2022-10-04T18:14:29.015Z,10.85
2022-10-04T18:17:03.898Z,11.18
2022-10-04T18:19:42.684Z,8.90
2022-10-04T18:22:19.816Z,8.38
2022-10-04T18:24:48.967Z,8.80
2022-10-04T18:27:18.638Z,12.20
2022-10-04T18:30:14.277Z,11.07
2022-10-04T18:32:57.194Z,11.02
2022-10-04T18:35:32.525Z,11.32
2022-10-04T18:38:05.198Z,12.73
2022-10-04T18:40:42.752Z,14.25
2022-10-04T18:43:33.076Z,13.35
2022-10-04T18:46:21.010Z,14.10
2022-10-04T18:49:01.604Z,14.60
2022-10-04T18:51:39.820Z,15.70
2022-10-04T18:54:32.192Z,14.63
2022-10-04T18:57:31.292Z,15.65
2022-10-04T19:00:30.296Z,13.85
2022-10-04T19:03:18.222Z,14.30
2022-10-04T19:05:52.490Z,14.98
2022-10-04T19:08:41.226Z,14.38
2022-10-04T19:11:33.070Z,14.00
2022-10-04T19:14:14.436Z,14.38
2022-10-04T19:16:58.701Z,16.70
2022-10-04T19:19:53.815Z,15.77
2022-10-04T19:22:32.559Z,10.52
2022-10-04T19:25:31.179Z,11.55
2022-10-04T19:28:02.729Z,12.80
2022-10-04T19:30:53.002Z,12.93
2022-10-04T19:33:41.956Z,15.82
2022-10-04T19:36:23.348Z,12.35
2022-10-04T19:39:09.019Z,15.00
2022-10-04T19:42:04.447Z,16.15
2022-10-04T19:45:08.595Z,12.23
2022-10-04T19:47:48.897Z,13.23
2022-10-04T19:50:34.503Z,15.27
2022-10-04T19:53:13.101Z,14.85
2022-10-04T19:55:57.457Z,11.85
2022-10-04T19:58:39.708Z,18.73
2022-10-04T20:01:16.460Z,13.60
2022-10-04T20:03:43.987Z,12.75
2022-10-04T20:06:19.715Z,17.30
2022-10-04T20:09:17.239Z,16.00
2022-10-04T20:11:43.964Z,13.00
2022-10-04T20:14:16.824Z,13.60
2022-10-04T20:16:46.860Z,11.73
2022-10-04T20:19:29.228Z,16.08
2022-10-04T20:22:18.479Z,19.13
2022-10-04T20:24:45.135Z,13.93
2022-10-04T20:27:28.234Z,12.25
2022-10-04T20:29:56.968Z,15.90
2022-10-04T20:32:26.751Z,15.25
2022-10-04T20:34:55.626Z,13.40
2022-10-04T20:37:45.087Z,15.77
2022-10-04T20:40:34.385Z,12.82
2022-10-04T20:43:13.325Z,14.18
2022-10-04T20:45:48.219Z,15.20
2022-10-04T20:48:31.281Z,13.80
2022-10-04T20:51:08.762Z,11.23
2022-10-04T20:53:35.746Z,11.05
2022-10-04T20:56:26.544Z,15.45
2022-10-04T20:58:59.577Z,15.20
2022-10-04T21:01:37.436Z,12.07
2022-10-04T21:04:19.361Z,15.73
2022-10-04T21:06:57.555Z,15.77
2022-10-04T21:09:25.539Z,12.93
2022-10-04T21:11:54.045Z,12.68
2022-10-04T21:14:24.250Z,17.58
2022-10-04T21:16:58.701Z,13.93
2022-10-04T21:19:44.456Z,16.98
2022-10-04T21:22:32.067Z,13.73
2022-10-04T21:25:29.048Z,13.63
2022-10-04T21:28:32.087Z,14.30
2022-10-04T21:31:00.180Z,13.20
2022-10-04T21:33:26.804Z,11.32
2022-10-04T21:35:53.422Z,12.50
2022-10-04T21:38:20.062Z,13.98
2022-10-04T21:40:46.674Z,17.42
2022-10-04T21:43:13.303Z,14.18
2022-10-04T21:45:40.009Z,15.30
2022-10-04T21:48:06.698Z,12.35
2022-10-04T21:50:33.367Z,13.13
2022-10-04T21:53:00.091Z,16.77
2022-10-04T21:55:26.803Z,12.85
2022-10-04T21:57:53.476Z,12.75
2022-10-04T22:00:21.094Z,11.07
2022-10-04T22:02:47.783Z,12.15
2022-10-04T22:05:14.525Z,17.88
2022-10-04T22:07:41.211Z,11.60
2022-10-04T22:10:08.252Z,15.48
2022-10-04T22:12:34.872Z,14.82
2022-10-04T22:15:01.771Z,14.35
2022-10-04T22:17:28.410Z,16.98
2022-10-04T22:19:55.054Z,11.77
2022-10-04T22:22:21.788Z,15.95
2022-10-04T22:24:48.395Z,15.18
2022-10-04T22:27:17.231Z,14.77
2022-10-04T22:29:44.079Z,13.32
2022-10-04T22:32:17.660Z,13.93
2022-10-04T22:34:44.443Z,19.02
2022-10-04T22:37:12.152Z,12.82
2022-10-04T22:39:39.366Z,22.10
2022-10-04T22:42:06.332Z,17.27
2022-10-04T22:44:37.778Z,14.43
2022-10-04T22:47:10.489Z,13.13
2022-10-04T22:49:40.101Z,14.15
2022-10-04T22:52:16.589Z,14.15
2022-10-04T22:54:46.438Z,13.00
2022-10-04T22:57:16.013Z,17.00
2022-10-04T22:59:48.360Z,11.57
2022-10-04T23:02:26.753Z,15.00
2022-10-04T23:05:21.106Z,14.88
2022-10-04T23:07:48.729Z,15.43
2022-10-04T23:10:18.506Z,14.38
2022-10-04T23:12:46.856Z,14.25
2022-10-04T23:15:19.604Z,12.93
2022-10-04T23:17:54.197Z,11.82
2022-10-04T23:20:21.253Z,12.98
2022-10-04T23:22:50.455Z,11.98
2022-10-04T23:25:21.643Z,13.38
2022-10-04T23:27:48.615Z,13.80
2022-10-04T23:30:21.090Z,12.15
2022-10-04T23:32:50.098Z,15.50
2022-10-04T23:35:23.526Z,15.00
2022-10-04T23:37:51.249Z,17.55
2022-10-04T23:40:23.278Z,17.17
2022-10-04T23:42:53.593Z,13.80
2022-10-04T23:45:22.893Z,12.73
2022-10-04T23:47:58.796Z,11.50
2022-10-04T23:50:43.636Z,10.55
2022-10-04T23:53:22.813Z,10.38
2022-10-04T23:55:49.502Z,10.98
2022-10-04T23:58:17.852Z,12.00
